createdAt,value
2018-02-21T00:01:24.241Z,100085
2018-02-21T00:03:27.791Z,100097
2018-02-21T00:05:30.978Z,100090
2018-02-21T00:07:34.154Z,100105
2018-02-21T00:09:37.349Z,100099
2018-02-21T00:11:40.537Z,100096
2018-02-21T00:13:43.724Z,100097
2018-02-21T00:15:46.911Z,100104
2018-02-21T00:17:50.113Z,100102
2018-02-21T00:19:54.048Z,100106
2018-02-21T00:21:57.277Z,100104
2018-02-21T00:24:00.495Z,100092
2018-02-21T00:26:03.665Z,100099
2018-02-21T00:28:07.642Z,100090
2018-02-21T00:30:10.797Z,100084
2018-02-21T00:32:14.759Z,100084
2018-02-21T00:34:17.963Z,100085
2018-02-21T00:36:21.161Z,100086
2018-02-21T00:38:24.345Z,100098
2018-02-21T00:40:28.287Z,100091
2018-02-21T00:42:32.412Z,100095
2018-02-21T00:44:36.357Z,100093
2018-02-21T00:46:39.547Z,100097
2018-02-21T00:48:43.499Z,100096
2018-02-21T00:50:46.673Z,100105
2018-02-21T00:52:50.664Z,100106
2018-02-21T00:54:53.893Z,100124
2018-02-21T00:56:57.099Z,100124
2018-02-21T00:59:00.283Z,100126
2018-02-21T01:01:03.482Z,100130
2018-02-21T01:03:06.674Z,100138
2018-02-21T01:05:09.902Z,100142
2018-02-21T01:07:18.452Z,100129
2018-02-21T01:09:21.659Z,100127
2018-02-21T01:11:24.852Z,100119
2018-02-21T01:13:28.037Z,100116
2018-02-21T01:15:31.233Z,100130
2018-02-21T01:17:35.208Z,100135
2018-02-21T01:19:38.388Z,100138
2018-02-21T01:21:41.587Z,100134
2018-02-21T01:23:44.763Z,100126
2018-02-21T01:25:48.744Z,100134
2018-02-21T01:27:51.961Z,100129
2018-02-21T01:29:55.529Z,100135
2018-02-21T01:31:59.491Z,100132
2018-02-21T01:34:02.668Z,100122
2018-02-21T01:36:06.661Z,100118
2018-02-21T01:38:09.832Z,100126
2018-02-21T01:40:13.029Z,100122
2018-02-21T01:42:16.226Z,100122
2018-02-21T01:44:21.085Z,100127
2018-02-21T01:46:24.287Z,100132
2018-02-21T01:48:28.259Z,100131
2018-02-21T01:50:48.984Z,100139
2018-02-21T01:52:52.185Z,100128
2018-02-21T01:54:55.369Z,100124
2018-02-21T01:56:58.574Z,100133
2018-02-21T01:59:01.782Z,100124
2018-02-21T02:01:04.973Z,100115
2018-02-21T02:03:08.234Z,100106
2018-02-21T02:05:11.531Z,100096
2018-02-21T02:07:15.025Z,100096
2018-02-21T02:09:18.207Z,100095
2018-02-21T02:11:22.156Z,100101
2018-02-21T02:13:25.892Z,100114
2018-02-21T02:15:29.063Z,100117
2018-02-21T02:17:33.045Z,100106
2018-02-21T02:19:36.230Z,100097
2018-02-21T02:21:39.434Z,100106
2018-02-21T02:23:42.627Z,100106
2018-02-21T02:25:45.793Z,100106
2018-02-21T02:27:49.004Z,100101
2018-02-21T02:29:52.232Z,100108
2018-02-21T02:31:56.750Z,100111
2018-02-21T02:34:00.490Z,100101
2018-02-21T02:36:04.194Z,100105
2018-02-21T02:38:07.489Z,100104
2018-02-21T02:40:10.733Z,100095
2018-02-21T02:42:14.866Z,100097
2018-02-21T02:44:19.855Z,100098
2018-02-21T02:46:23.501Z,100090
2018-02-21T02:48:26.932Z,100091
2018-02-21T02:50:30.145Z,100086
2018-02-21T02:52:33.486Z,100085
2018-02-21T02:54:37.447Z,100089
2018-02-21T02:56:40.689Z,100093
2018-02-21T02:58:44.001Z,100091
2018-02-21T03:00:47.190Z,100114
2018-02-21T03:02:50.369Z,100110
2018-02-21T03:04:55.499Z,100107
2018-02-21T03:06:58.698Z,100109
2018-02-21T03:09:01.910Z,100122
2018-02-21T03:11:05.889Z,100115
2018-02-21T03:13:09.072Z,100124
2018-02-21T03:15:12.246Z,100128
2018-02-21T03:17:15.450Z,100126
2018-02-21T03:19:18.658Z,100133
2018-02-21T03:21:23.277Z,100136
2018-02-21T03:23:26.607Z,100126
2018-02-21T03:25:29.777Z,100133
2018-02-21T03:27:32.991Z,100134
2018-02-21T03:29:36.193Z,100135
2018-02-21T03:31:39.646Z,100145
2018-02-21T03:33:42.892Z,100147
2018-02-21T03:35:46.116Z,100158
2018-02-21T03:37:49.552Z,100165
2018-02-21T03:39:52.726Z,100169
2018-02-21T03:41:55.924Z,100162
2018-02-21T03:43:59.101Z,100163
2018-02-21T03:46:02.280Z,100165
2018-02-21T03:48:05.497Z,100169
2018-02-21T03:50:08.706Z,100178
2018-02-21T03:52:11.892Z,100172
2018-02-21T03:54:15.098Z,100168
2018-02-21T03:56:18.309Z,100174
2018-02-21T03:58:21.493Z,100174
2018-02-21T04:00:24.684Z,100178
2018-02-21T04:02:27.882Z,100183
2018-02-21T04:04:31.082Z,100186
2018-02-21T04:06:34.257Z,100188
2018-02-21T04:08:37.465Z,100199
2018-02-21T04:10:40.672Z,100196
2018-02-21T04:12:43.855Z,100206
2018-02-21T04:14:47.020Z,100195
2018-02-21T04:16:50.209Z,100189
2018-02-21T04:18:53.375Z,100195
2018-02-21T04:20:56.574Z,100192
2018-02-21T04:22:59.795Z,100199
2018-02-21T04:25:03.025Z,100199
2018-02-21T04:27:06.949Z,100204
2018-02-21T04:29:10.128Z,100210
2018-02-21T04:31:13.338Z,100215
2018-02-21T04:33:16.544Z,100206
2018-02-21T04:35:19.745Z,100205
2018-02-21T04:37:22.971Z,100205
2018-02-21T04:39:26.181Z,100210
2018-02-21T04:41:29.373Z,100205
2018-02-21T04:43:32.561Z,100214
2018-02-21T04:45:35.761Z,100207
2018-02-21T04:47:38.959Z,100198
2018-02-21T04:49:42.126Z,100191
2018-02-21T04:51:45.337Z,100189
2018-02-21T04:53:48.550Z,100191
2018-02-21T04:55:57.232Z,100197
2018-02-21T04:58:05.901Z,100200
2018-02-21T05:00:10.450Z,100199
2018-02-21T05:02:13.661Z,100198
2018-02-21T05:04:16.869Z,100203
2018-02-21T05:06:20.895Z,100197
2018-02-21T05:08:24.145Z,100201
2018-02-21T05:10:27.369Z,100194
2018-02-21T05:12:30.568Z,100187
2018-02-21T05:14:33.779Z,100192
2018-02-21T05:16:36.990Z,100200
2018-02-21T05:18:40.932Z,100202
2018-02-21T05:20:44.132Z,100196
2018-02-21T05:22:49.156Z,100187
2018-02-21T05:24:52.897Z,100199
2018-02-21T05:26:58.046Z,100177
2018-02-21T05:29:01.926Z,100184
2018-02-21T05:34:06.426Z,100192
2018-02-21T05:36:11.542Z,100178
2018-02-21T05:38:15.626Z,100178
2018-02-21T05:40:20.094Z,100183
2018-02-21T05:42:25.460Z,100174
2018-02-21T05:44:31.418Z,100173
2018-02-21T05:46:38.593Z,100178
2018-02-21T05:48:44.279Z,100179
2018-02-21T05:50:50.535Z,100186
2018-02-21T05:52:57.380Z,100189
2018-02-21T05:55:03.167Z,100182
2018-02-21T05:57:08.055Z,100180
2018-02-21T05:59:11.983Z,100185
2018-02-21T06:01:16.140Z,100194
2018-02-21T06:03:20.539Z,100191
2018-02-21T06:05:24.063Z,100193
2018-02-21T06:07:28.084Z,100201
2018-02-21T06:09:31.925Z,100206
2018-02-21T06:11:35.590Z,100203
2018-02-21T06:13:40.518Z,100207
2018-02-21T06:15:46.397Z,100199
2018-02-21T06:17:51.507Z,100187
2018-02-21T06:19:55.722Z,100190
2018-02-21T06:22:00.178Z,100196
2018-02-21T06:24:04.484Z,100193
2018-02-21T06:26:08.862Z,100198
2018-02-21T06:28:12.319Z,100202
2018-02-21T06:30:15.622Z,100217
2018-02-21T06:32:19.565Z,100216
2018-02-21T06:34:24.135Z,100215
2018-02-21T06:36:29.386Z,100206
2018-02-21T06:38:33.615Z,100211
2018-02-21T06:40:38.638Z,100209
2018-02-21T06:42:42.391Z,100206
2018-02-21T06:44:45.595Z,100208
2018-02-21T06:46:48.786Z,100220
2018-02-21T06:48:51.990Z,100222
2018-02-21T06:50:55.168Z,100221
2018-02-21T06:52:58.353Z,100222
2018-02-21T06:55:02.520Z,100228
2018-02-21T06:57:06.842Z,100238
2018-02-21T06:59:10.333Z,100246
2018-02-21T07:01:15.226Z,100232
2018-02-21T07:03:19.695Z,100236
2018-02-21T07:05:23.001Z,100237
2018-02-21T07:07:26.170Z,100247
2018-02-21T07:09:30.157Z,100235
2018-02-21T07:11:33.324Z,100249
2018-02-21T07:13:37.286Z,100247
2018-02-21T07:15:40.529Z,100249
2018-02-21T07:17:43.677Z,100261
2018-02-21T07:43:32.792Z,100256
2018-02-21T07:45:36.974Z,100260
2018-02-21T07:47:40.785Z,100263
2018-02-21T07:49:45.556Z,100255
2018-02-21T07:51:49.647Z,100251
2018-02-21T07:53:53.708Z,100245
2018-02-21T07:55:57.197Z,100252
2018-02-21T07:58:00.519Z,100246
2018-02-21T08:00:05.892Z,100237
2018-02-21T08:02:10.540Z,100237
2018-02-21T08:04:13.896Z,100224
2018-02-21T08:06:17.917Z,100225
2018-02-21T08:08:21.578Z,100233
2018-02-21T08:10:25.098Z,100242
2018-02-21T08:12:28.414Z,100241
2018-02-21T08:14:31.693Z,100238
2018-02-21T08:16:35.015Z,100240
2018-02-21T08:18:39.840Z,100237
2018-02-21T08:20:43.242Z,100245
2018-02-21T08:22:46.527Z,100231
2018-02-21T08:24:49.795Z,100234
2018-02-21T08:26:53.963Z,100230
2018-02-21T08:28:57.367Z,100237
2018-02-21T08:31:00.670Z,100244
2018-02-21T08:33:04.033Z,100231
2018-02-21T08:35:28.130Z,100238
2018-02-21T08:37:32.975Z,100242
2018-02-21T08:39:38.246Z,100254
2018-02-21T08:41:41.602Z,100252
2018-02-21T08:43:46.020Z,100255
2018-02-21T08:45:50.117Z,100257
2018-02-21T08:47:53.488Z,100236
2018-02-21T08:49:57.764Z,100236
2018-02-21T08:52:01.195Z,100241
2018-02-21T08:54:04.644Z,100247
2018-02-21T08:56:08.055Z,100241
2018-02-21T08:58:11.375Z,100239
2018-02-21T09:00:15.506Z,100233
2018-02-21T09:02:20.228Z,100234
2018-02-21T09:04:24.546Z,100230
2018-02-21T09:06:29.067Z,100231
2018-02-21T09:08:33.371Z,100235
2018-02-21T09:10:37.509Z,100227
2018-02-21T09:12:40.838Z,100219
2018-02-21T09:14:44.868Z,100222
2018-02-21T09:16:48.202Z,100218
2018-02-21T09:18:51.541Z,100218
2018-02-21T09:20:55.609Z,100217
2018-02-21T09:22:59.203Z,100213
2018-02-21T09:25:03.359Z,100214
2018-02-21T09:27:06.676Z,100212
2018-02-21T09:29:10.089Z,100222
2018-02-21T09:31:13.405Z,100219
2018-02-21T09:33:16.660Z,100213
2018-02-21T09:35:21.780Z,100223
2018-02-21T09:37:25.124Z,100237
2018-02-21T09:39:28.448Z,100223
2018-02-21T09:41:32.567Z,100226
2018-02-21T09:43:36.309Z,100221
2018-02-21T09:45:39.691Z,100234
2018-02-21T09:47:43.057Z,100236
2018-02-21T09:49:46.471Z,100231
2018-02-21T09:51:49.831Z,100221
2018-02-21T09:53:54.486Z,100229
2018-02-21T09:55:58.719Z,100217
2018-02-21T09:58:02.053Z,100226
2018-02-21T10:00:05.557Z,100217
2018-02-21T10:02:08.950Z,100230
2018-02-21T10:04:12.526Z,100220
2018-02-21T10:06:16.954Z,100222
2018-02-21T10:08:20.549Z,100227
2018-02-21T10:10:25.352Z,100228
2018-02-21T10:12:28.774Z,100225
2018-02-21T10:14:32.983Z,100227
2018-02-21T10:16:36.682Z,100223
2018-02-21T10:18:41.192Z,100232
2018-02-21T10:20:45.475Z,100227
2018-02-21T10:22:49.516Z,100229
2018-02-21T10:24:53.621Z,100229
2018-02-21T10:26:57.234Z,100220
2018-02-21T10:29:02.550Z,100227
2018-02-21T10:31:05.957Z,100225
2018-02-21T10:33:10.490Z,100231
2018-02-21T10:35:16.570Z,100214
2018-02-21T10:37:19.952Z,100219
2018-02-21T10:39:23.569Z,100216
2018-02-21T10:41:27.067Z,100206
2018-02-21T10:43:30.514Z,100212
2018-02-21T10:45:35.728Z,100215
2018-02-21T10:47:39.143Z,100218
2018-02-21T10:49:42.526Z,100209
2018-02-21T10:51:46.513Z,100215
2018-02-21T10:53:49.985Z,100213
2018-02-21T10:55:53.524Z,100208
2018-02-21T10:57:56.873Z,100209
2018-02-21T11:00:01.365Z,100203
2018-02-21T11:02:05.581Z,100207
2018-02-21T11:04:08.953Z,100207
2018-02-21T11:06:15.376Z,100210
2018-02-21T11:08:20.797Z,100207
2018-02-21T11:10:24.738Z,100221
2018-02-21T11:12:30.557Z,100205
2018-02-21T11:14:35.073Z,100215
2018-02-21T11:16:38.765Z,100218
2018-02-21T11:18:43.005Z,100219
2018-02-21T11:20:47.387Z,100218
2018-02-21T11:22:52.556Z,100223
2018-02-21T11:24:57.631Z,100219
2018-02-21T11:27:01.235Z,100219
2018-02-21T11:29:05.829Z,100210
2018-02-21T11:31:11.152Z,100210
2018-02-21T11:33:16.083Z,100213
2018-02-21T11:35:22.077Z,100207
2018-02-21T11:37:25.629Z,100210
2018-02-21T11:39:31.633Z,100216
2018-02-21T11:41:35.677Z,100214
2018-02-21T11:43:42.540Z,100220
2018-02-21T11:45:46.840Z,100216
2018-02-21T11:47:50.444Z,100206
2018-02-21T11:49:53.819Z,100213
2018-02-21T11:51:57.423Z,100209
2018-02-21T11:54:00.787Z,100210
2018-02-21T11:56:05.026Z,100208
2018-02-21T11:58:08.550Z,100198
2018-02-21T12:00:12.031Z,100203
2018-02-21T12:02:15.689Z,100209
2018-02-21T12:04:19.127Z,100200
2018-02-21T12:06:22.460Z,100197
2018-02-21T12:08:25.874Z,100196
2018-02-21T12:10:30.529Z,100197
2018-02-21T12:12:34.695Z,100191
2018-02-21T12:14:38.067Z,100192
2018-02-21T12:16:41.434Z,100190
2018-02-21T12:18:45.507Z,100188
2018-02-21T12:20:48.864Z,100197
2018-02-21T12:22:52.222Z,100191
2018-02-21T12:24:55.620Z,100198
2018-02-21T12:26:58.933Z,100195
2018-02-21T12:31:47.544Z,100183
2018-02-21T12:39:26.283Z,100186
2018-02-21T12:41:35.709Z,100185
2018-02-21T12:43:38.895Z,100174
2018-02-21T12:45:42.132Z,100179
2018-02-21T12:47:45.337Z,100167
2018-02-21T12:49:48.554Z,100175
2018-02-21T12:51:51.755Z,100166
2018-02-21T12:53:54.967Z,100159
2018-02-21T12:56:48.609Z,100182
2018-02-21T12:58:51.792Z,100169
2018-02-21T13:00:55.009Z,100160
2018-02-21T13:02:58.184Z,100168
2018-02-21T13:05:01.406Z,100170
2018-02-21T13:07:04.556Z,100176
2018-02-21T13:09:08.510Z,100170
2018-02-21T13:11:11.682Z,100166
2018-02-21T13:13:15.605Z,100150
2018-02-21T13:15:18.788Z,100160
2018-02-21T13:17:22.023Z,100162
2018-02-21T13:19:25.209Z,100161
2018-02-21T13:21:28.385Z,100155
2018-02-21T13:23:31.544Z,100161
2018-02-21T13:25:34.703Z,100152
2018-02-21T13:27:39.013Z,100157
2018-02-21T13:29:42.994Z,100152
2018-02-21T13:31:46.144Z,100153
2018-02-21T13:33:50.114Z,100151
2018-02-21T13:35:53.277Z,100151
2018-02-21T13:37:57.209Z,100149
2018-02-21T13:40:01.166Z,100158
2018-02-21T13:42:04.318Z,100148
2018-02-21T13:44:07.496Z,100142
2018-02-21T13:46:10.647Z,100135
2018-02-21T13:48:14.560Z,100147
2018-02-21T13:50:17.749Z,100151
2018-02-21T13:52:20.929Z,100143
2018-02-21T13:54:24.077Z,100137
2018-02-21T13:56:27.260Z,100145
2018-02-21T13:58:30.405Z,100133
2018-02-21T14:00:34.320Z,100140
2018-02-21T14:02:37.498Z,100134
2018-02-21T14:04:41.504Z,100130
2018-02-21T14:06:44.662Z,100139
2018-02-21T14:08:47.900Z,100136
2018-02-21T14:10:51.845Z,100128
2018-02-21T14:12:54.987Z,100136
2018-02-21T14:14:58.153Z,100132
2018-02-21T14:17:01.335Z,100121
2018-02-21T14:19:05.255Z,100127
2018-02-21T14:21:08.400Z,100131
2018-02-21T14:23:11.576Z,100121
2018-02-21T14:25:15.521Z,100134
2018-02-21T14:27:18.671Z,100132
2018-02-21T14:29:21.852Z,100126
2018-02-21T14:31:25.002Z,100115
2018-02-21T14:33:28.176Z,100128
2018-02-21T14:35:31.324Z,100124
2018-02-21T14:37:34.509Z,100122
2018-02-21T14:39:37.664Z,100123
2018-02-21T14:41:42.701Z,100120
2018-02-21T14:43:46.645Z,100108
2018-02-21T14:45:50.557Z,100113
2018-02-21T14:47:54.506Z,100116
2018-02-21T14:49:57.697Z,100115
2018-02-21T14:52:01.645Z,100117
2018-02-21T14:54:04.795Z,100117
2018-02-21T14:56:07.950Z,100122
2018-02-21T14:58:11.134Z,100121
2018-02-21T15:00:15.148Z,100112
2018-02-21T15:02:18.329Z,100118
2018-02-21T15:04:21.500Z,100118
2018-02-21T15:06:24.649Z,100120
2018-02-21T15:08:27.833Z,100111
2018-02-21T15:10:31.018Z,100108
2018-02-21T15:12:35.000Z,100124
2018-02-21T15:14:38.150Z,100123
2018-02-21T15:16:43.216Z,100117
2018-02-21T15:18:46.373Z,100119
2018-02-21T15:20:49.527Z,100117
2018-02-21T15:22:52.721Z,100121
2018-02-21T15:24:56.663Z,100114
2018-02-21T15:26:59.813Z,100112
2018-02-21T15:29:02.989Z,100107
2018-02-21T15:31:06.146Z,100109
2018-02-21T15:33:09.333Z,100103
2018-02-21T15:35:12.549Z,100100
2018-02-21T15:37:16.479Z,100100
2018-02-21T15:39:19.945Z,100098
2018-02-21T15:41:23.339Z,100093
2018-02-21T15:43:27.559Z,100091
2018-02-21T15:45:31.083Z,100098
2018-02-21T15:47:34.320Z,100098
2018-02-21T15:49:37.504Z,100093
2018-02-21T15:51:41.580Z,100092
2018-02-21T15:53:44.760Z,100108
2018-02-21T15:55:47.913Z,100091
2018-02-21T15:57:51.774Z,100094
2018-02-21T15:59:55.712Z,100091
2018-02-21T16:01:58.861Z,100095
2018-02-21T16:04:02.052Z,100092
2018-02-21T16:06:05.276Z,100099
2018-02-21T16:08:08.430Z,100095
2018-02-21T16:10:13.422Z,100103
2018-02-21T16:12:16.573Z,100104
2018-02-21T16:14:19.744Z,100099
2018-02-21T16:16:22.898Z,100098
2018-02-21T16:18:27.152Z,100106
2018-02-21T16:20:30.308Z,100099
2018-02-21T16:22:34.256Z,100098
2018-02-21T16:24:38.275Z,100105
2018-02-21T16:26:41.429Z,100104
2018-02-21T16:28:44.613Z,100106
2018-02-21T16:30:48.566Z,100113
2018-02-21T16:32:51.746Z,100103
2018-02-21T16:34:55.866Z,100110
2018-02-21T16:36:59.815Z,100113
2018-02-21T16:39:03.338Z,100114
2018-02-21T16:41:06.618Z,100114
2018-02-21T16:43:09.793Z,100122
2018-02-21T16:45:12.962Z,100113
2018-02-21T16:47:16.148Z,100116
2018-02-21T16:49:20.193Z,100111
2018-02-21T16:51:24.106Z,100113
2018-02-21T16:53:28.121Z,100112
2018-02-21T16:55:32.381Z,100110
2018-02-21T16:57:35.724Z,100116
2018-02-21T16:59:39.361Z,100112
2018-02-21T17:01:42.505Z,100114
2018-02-21T17:03:46.428Z,100124
2018-02-21T17:05:50.386Z,100124
2018-02-21T17:07:53.616Z,100120
2018-02-21T17:09:57.284Z,100129
2018-02-21T17:12:00.441Z,100130
2018-02-21T17:14:03.633Z,100126
2018-02-21T17:16:06.857Z,100128
2018-02-21T17:18:10.040Z,100124
2018-02-21T17:20:13.396Z,100123
2018-02-21T17:22:17.375Z,100131
2018-02-21T17:24:20.571Z,100136
2018-02-21T17:26:24.512Z,100136
2018-02-21T17:28:27.656Z,100126
2018-02-21T17:30:30.808Z,100130
2018-02-21T17:32:33.999Z,100142
2018-02-21T17:34:37.948Z,100138
2018-02-21T17:36:41.133Z,100139
2018-02-21T17:38:44.328Z,100130
2018-02-21T17:40:52.919Z,100129
2018-02-21T17:42:56.068Z,100134
2018-02-21T17:44:59.312Z,100141
2018-02-21T17:47:02.703Z,100138
2018-02-21T17:49:06.988Z,100154
2018-02-21T17:51:11.635Z,100149
2018-02-21T17:53:18.416Z,100145
2018-02-21T17:55:22.829Z,100154
2018-02-21T17:57:28.193Z,100153
2018-02-21T17:59:31.369Z,100154
2018-02-21T18:01:34.554Z,100157
2018-02-21T18:03:37.737Z,100158
2018-02-21T18:05:42.344Z,100154
2018-02-21T18:07:46.268Z,100159
2018-02-21T18:09:50.216Z,100148
2018-02-21T18:11:53.399Z,100162
2018-02-21T18:13:57.629Z,100153
2018-02-21T18:16:02.776Z,100157
2018-02-21T18:18:06.707Z,100154
2018-02-21T18:20:10.617Z,100157
2018-02-21T18:22:13.795Z,100151
2018-02-21T18:24:16.972Z,100166
2018-02-21T18:26:20.145Z,100162
2018-02-21T18:28:23.318Z,100159
2018-02-21T18:30:26.656Z,100157
2018-02-21T18:32:30.109Z,100161
2018-02-21T18:34:33.281Z,100157
2018-02-21T18:36:36.458Z,100151
2018-02-21T18:38:39.614Z,100149
2018-02-21T18:40:43.032Z,100166
2018-02-21T18:42:46.968Z,100163
2018-02-21T18:44:50.193Z,100167
2018-02-21T18:46:55.104Z,100166
2018-02-21T18:48:59.367Z,100166
2018-02-21T18:51:03.368Z,100168
2018-02-21T18:53:07.283Z,100166
2018-02-21T18:55:10.584Z,100165
2018-02-21T18:57:14.073Z,100176
2018-02-21T18:59:18.047Z,100172
2018-02-21T19:01:22.038Z,100174
2018-02-21T19:03:26.063Z,100174
2018-02-21T19:05:29.384Z,100177
2018-02-21T19:07:33.710Z,100180
2018-02-21T19:09:37.136Z,100166
2018-02-21T19:11:41.011Z,100166
2018-02-21T19:13:44.948Z,100180
2018-02-21T19:15:48.625Z,100168
2018-02-21T19:17:53.195Z,100176
2018-02-21T19:19:56.989Z,100166
2018-02-21T19:22:00.918Z,100170
2018-02-21T19:24:06.733Z,100181
2018-02-21T19:26:10.405Z,100172
2018-02-21T19:28:14.489Z,100167
2018-02-21T19:30:18.748Z,100175
2018-02-21T19:32:22.137Z,100165
2018-02-21T19:34:26.984Z,100174
2018-02-21T19:36:32.409Z,100170
2018-02-21T19:38:35.921Z,100172
2018-02-21T19:40:39.134Z,100169
2018-02-21T19:42:44.068Z,100164
2018-02-21T19:44:49.018Z,100164
2018-02-21T19:46:52.177Z,100169
2018-02-21T19:48:55.352Z,100168
2018-02-21T19:50:58.518Z,100176
2018-02-21T19:53:02.448Z,100186
2018-02-21T19:55:06.428Z,100176
2018-02-21T19:57:09.579Z,100182
2018-02-21T19:59:13.731Z,100181
2018-02-21T20:01:17.025Z,100174
2018-02-21T20:03:21.040Z,100178
2018-02-21T20:05:24.459Z,100179
2018-02-21T20:07:28.760Z,100166
2018-02-21T20:09:32.044Z,100167
2018-02-21T20:11:35.267Z,100167
2018-02-21T20:13:38.441Z,100167
2018-02-21T20:15:41.688Z,100169
2018-02-21T20:17:44.923Z,100175
2018-02-21T20:19:49.343Z,100175
2018-02-21T20:21:52.488Z,100172
2018-02-21T20:23:56.480Z,100187
2018-02-21T20:25:59.656Z,100185
2018-02-21T20:28:02.934Z,100178
2018-02-21T20:30:06.885Z,100174
2018-02-21T20:32:10.071Z,100180
2018-02-21T20:34:13.789Z,100185
2018-02-21T20:36:17.010Z,100189
2018-02-21T20:38:20.910Z,100183
2018-02-21T20:40:24.018Z,100184
2018-02-21T20:42:27.224Z,100174
2018-02-21T20:44:30.649Z,100183
2018-02-21T20:46:33.961Z,100185
2018-02-21T20:48:37.989Z,100183
2018-02-21T20:50:42.240Z,100187
2018-02-21T20:52:45.458Z,100190
2018-02-21T20:54:48.608Z,100175
2018-02-21T20:56:51.760Z,100180
2018-02-21T20:58:54.944Z,100193
2018-02-21T21:00:59.000Z,100194
2018-02-21T21:03:02.175Z,100190
2018-02-21T21:05:06.504Z,100197
2018-02-21T21:07:09.704Z,100195
2018-02-21T21:09:13.621Z,100201
2018-02-21T21:11:16.774Z,100205
2018-02-21T21:13:20.022Z,100204
2018-02-21T21:15:23.177Z,100207
2018-02-21T21:17:27.132Z,100199
2018-02-21T21:19:31.570Z,100201
2018-02-21T21:21:34.720Z,100198
2018-02-21T21:23:38.051Z,100200
2018-02-21T21:25:42.169Z,100199
2018-02-21T21:27:46.936Z,100206
2018-02-21T21:29:50.368Z,100207
2018-02-21T21:31:53.672Z,100197
2018-02-21T21:33:56.902Z,100207
2018-02-21T21:36:00.736Z,100203
2018-02-21T21:38:03.964Z,100207
2018-02-21T21:40:07.573Z,100190
2018-02-21T21:42:10.728Z,100210
2018-02-21T21:44:14.673Z,100203
2018-02-21T21:46:17.859Z,100195
2018-02-21T21:48:21.800Z,100207
2018-02-21T21:50:24.980Z,100201
2018-02-21T21:52:28.119Z,100206
2018-02-21T21:54:33.188Z,100196
2018-02-21T21:56:36.336Z,100201
2018-02-21T21:58:40.279Z,100198
2018-02-21T22:00:44.533Z,100199
2018-02-21T22:02:47.741Z,100196
2018-02-21T22:04:51.625Z,100195
2018-02-21T22:06:56.315Z,100197
2018-02-21T22:08:59.465Z,100194
2018-02-21T22:11:02.641Z,100203
2018-02-21T22:13:05.828Z,100202
2018-02-21T22:15:09.009Z,100199
2018-02-21T22:17:14.056Z,100200
2018-02-21T22:19:17.212Z,100198
2018-02-21T22:21:20.386Z,100198
2018-02-21T22:23:24.304Z,100188
2018-02-21T22:25:28.216Z,100196
2018-02-21T22:27:31.401Z,100198
2018-02-21T22:29:34.581Z,100198
2018-02-21T22:31:37.761Z,100204
2018-02-21T22:33:42.640Z,100200
2018-02-21T22:35:46.156Z,100199
2018-02-21T22:37:49.336Z,100206
2018-02-21T22:39:52.523Z,100207
2018-02-21T22:41:55.712Z,100200
2018-02-21T22:43:58.861Z,100209
2018-02-21T22:46:02.857Z,100210
2018-02-21T22:48:05.976Z,100202
2018-02-21T22:50:09.893Z,100208
2018-02-21T22:52:13.077Z,100212
2018-02-21T22:54:16.225Z,100202
2018-02-21T22:56:20.149Z,100202
2018-02-21T22:58:23.344Z,100217
2018-02-21T23:00:26.497Z,100206
2018-02-21T23:02:29.640Z,100212
2018-02-21T23:04:32.830Z,100214
2018-02-21T23:06:36.009Z,100216
2018-02-21T23:08:39.180Z,100211
2018-02-21T23:10:43.095Z,100211
2018-02-21T23:12:46.336Z,100212
2018-02-21T23:14:50.281Z,100222
2018-02-21T23:16:53.436Z,100217
2018-02-21T23:18:56.591Z,100209
2018-02-21T23:20:59.779Z,100204
2018-02-21T23:23:03.697Z,100222
2018-02-21T23:25:07.000Z,100212
2018-02-21T23:27:10.923Z,100202
2018-02-21T23:29:15.964Z,100215
2018-02-21T23:31:19.161Z,100203
2018-02-21T23:33:22.316Z,100204
2018-02-21T23:35:26.237Z,100212
2018-02-21T23:37:30.177Z,100210
2018-02-21T23:39:33.373Z,100209
2018-02-21T23:41:37.308Z,100206
2018-02-21T23:43:40.468Z,100203
2018-02-21T23:45:43.652Z,100212
2018-02-21T23:47:47.832Z,100208
2018-02-21T23:49:51.762Z,100205
2018-02-21T23:51:56.854Z,100217
2018-02-21T23:54:00.008Z,100205
2018-02-21T23:56:03.949Z,100215
2018-02-21T23:58:08.148Z,100201
